createdAt,value
2023-05-22T00:00:56.314Z,94.08
2023-05-22T00:01:56.455Z,92.54
2023-05-22T00:02:56.401Z,94.80
2023-05-22T00:03:56.295Z,91.72
2023-05-22T00:04:56.329Z,91.16
2023-05-22T00:05:56.258Z,92.40
2023-05-22T00:06:56.255Z,91.67
2023-05-22T00:07:56.240Z,91.27
2023-05-22T00:08:56.235Z,92.80
2023-05-22T00:09:56.261Z,93.32
2023-05-22T00:10:56.203Z,93.63
2023-05-22T00:11:56.208Z,90.85
2023-05-22T00:12:56.182Z,90.30
2023-05-22T00:13:56.179Z,89.07
2023-05-22T00:14:56.166Z,91.33
2023-05-22T00:15:56.184Z,95.23
2023-05-22T00:16:56.276Z,94.20
2023-05-22T00:17:56.161Z,89.69
2023-05-22T00:18:56.141Z,91.33
2023-05-22T00:19:56.130Z,92.14
2023-05-22T00:20:56.118Z,88.96
2023-05-22T00:21:56.823Z,87.90
2023-05-22T00:22:56.081Z,87.79
2023-05-22T00:23:56.066Z,93.64
2023-05-22T00:24:56.068Z,92.10
2023-05-22T00:25:56.051Z,90.26
2023-05-22T00:26:56.045Z,91.80
2023-05-22T00:27:56.058Z,92.21
2023-05-22T00:28:56.025Z,88.82
2023-05-22T00:29:56.019Z,93.02
2023-05-22T00:30:56.004Z,94.56
2023-05-22T00:31:56.014Z,93.64
2023-05-22T00:32:56.004Z,93.13
2023-05-22T00:33:56.034Z,91.49
2023-05-22T00:34:55.963Z,89.95
2023-05-22T00:35:55.953Z,90.46
2023-05-22T00:36:55.937Z,89.13
2023-05-22T00:37:55.939Z,90.56
2023-05-22T00:38:55.928Z,90.22
2023-05-22T00:39:55.984Z,90.73
2023-05-22T00:40:55.925Z,89.29
2023-05-22T00:41:55.899Z,89.39
2023-05-22T00:42:55.899Z,88.98
2023-05-22T00:43:55.884Z,93.08
2023-05-22T00:44:55.869Z,90.62
2023-05-22T00:45:55.867Z,94.42
2023-05-22T00:46:55.934Z,91.35
2023-05-22T00:47:55.829Z,90.93
2023-05-22T00:48:55.828Z,90.01
2023-05-22T00:49:55.795Z,89.50
2023-05-22T00:50:55.815Z,90.93
2023-05-22T00:51:55.823Z,90.32
2023-05-22T00:52:55.778Z,92.16
2023-05-22T00:53:55.773Z,91.86
2023-05-22T00:54:55.756Z,92.78
2023-05-22T00:55:55.744Z,90.52
2023-05-22T00:56:55.741Z,90.32
2023-05-22T00:57:55.764Z,93.70
2023-05-22T00:58:55.717Z,94.11
2023-05-22T00:59:55.701Z,91.24
2023-05-22T01:00:55.755Z,91.86
2023-05-22T01:01:55.700Z,92.57
2023-05-22T01:02:55.727Z,91.55
2023-05-22T01:03:55.894Z,91.24
2023-05-22T01:04:55.662Z,90.73
2023-05-22T01:05:55.634Z,92.78
2023-05-22T01:06:55.635Z,92.36
2023-05-22T01:07:55.626Z,92.36
2023-05-22T01:08:55.621Z,90.01
2023-05-22T01:09:55.631Z,92.57
2023-05-22T01:10:55.586Z,91.55
2023-05-22T01:11:55.579Z,90.62
2023-05-22T01:12:55.607Z,90.83
2023-05-22T01:13:55.568Z,92.36
2023-05-22T01:14:55.546Z,91.14
2023-05-22T01:15:55.607Z,91.44
2023-05-22T01:16:55.527Z,90.62
2023-05-22T01:17:55.549Z,92.06
2023-05-22T01:18:55.520Z,91.55
2023-05-22T01:19:55.503Z,91.96
2023-05-22T01:20:55.487Z,89.70
2023-05-22T01:21:55.504Z,91.96
2023-05-22T01:22:55.466Z,91.03
2023-05-22T01:23:55.425Z,90.42
2023-05-22T01:24:55.445Z,89.90
2023-05-22T01:25:55.427Z,89.19
2023-05-22T01:26:55.415Z,88.78
2023-05-22T01:27:55.454Z,88.78
2023-05-22T01:28:55.409Z,88.88
2023-05-22T01:29:55.383Z,88.98
2023-05-22T01:30:55.387Z,88.17
2023-05-22T01:31:55.371Z,88.57
2023-05-22T01:32:55.400Z,88.98
2023-05-22T01:33:55.546Z,89.19
2023-05-22T01:34:55.350Z,89.39
2023-05-22T01:35:55.338Z,89.81
2023-05-22T01:36:55.327Z,89.81
2023-05-22T01:37:55.337Z,88.98
2023-05-22T01:38:55.307Z,88.88
2023-05-22T01:39:55.274Z,88.88
2023-05-22T01:40:55.247Z,89.09
2023-05-22T01:41:55.231Z,89.60
2023-05-22T01:42:55.213Z,90.62
2023-05-22T01:43:55.199Z,89.09
2023-05-22T01:44:55.177Z,89.19
2023-05-22T01:45:55.253Z,89.81
2023-05-22T01:46:55.171Z,89.09
2023-05-22T01:47:55.190Z,90.11
2023-05-22T01:48:55.142Z,89.50
2023-05-22T01:49:55.136Z,88.98
2023-05-22T01:50:55.116Z,89.50
2023-05-22T01:51:55.193Z,89.90
2023-05-22T01:52:55.107Z,88.78
2023-05-22T01:53:55.087Z,89.39
2023-05-22T01:54:55.088Z,89.09
2023-05-22T01:55:55.080Z,90.42
2023-05-22T01:56:55.061Z,88.92
2023-05-22T01:57:55.081Z,88.82
2023-05-22T01:58:55.042Z,89.75
2023-05-22T01:59:55.040Z,90.16
2023-05-22T02:00:55.590Z,90.67
2023-05-22T02:01:55.018Z,89.13
2023-05-22T02:02:55.077Z,89.23
2023-05-22T02:03:55.024Z,88.72
2023-05-22T02:04:54.975Z,89.03
2023-05-22T02:05:54.965Z,88.72
2023-05-22T02:06:54.952Z,90.97
2023-05-22T02:07:54.940Z,90.87
2023-05-22T02:08:54.943Z,90.67
2023-05-22T02:09:54.980Z,89.75
2023-05-22T02:10:54.905Z,89.75
2023-05-22T02:11:54.916Z,89.03
2023-05-22T02:12:54.890Z,90.56
2023-05-22T02:13:54.885Z,89.95
2023-05-22T02:14:54.876Z,90.46
2023-05-22T02:15:54.944Z,89.75
2023-05-22T02:16:54.843Z,89.95
2023-05-22T02:17:54.862Z,89.64
2023-05-22T02:18:54.833Z,90.77
2023-05-22T02:19:54.833Z,90.46
2023-05-22T02:20:54.808Z,89.54
2023-05-22T02:21:54.847Z,89.13
2023-05-22T02:22:54.798Z,90.16
2023-05-22T02:23:54.779Z,89.95
2023-05-22T02:24:54.783Z,88.92
2023-05-22T02:25:54.757Z,89.90
2023-05-22T02:26:54.745Z,89.29
2023-05-22T02:27:54.776Z,88.68
2023-05-22T02:28:54.725Z,89.39
2023-05-22T02:29:54.718Z,89.50
2023-05-22T02:30:54.735Z,88.57
2023-05-22T02:31:54.704Z,89.70
2023-05-22T02:32:54.732Z,89.29
2023-05-22T02:33:54.716Z,88.37
2023-05-22T02:34:54.932Z,88.57
2023-05-22T02:35:54.660Z,89.39
2023-05-22T02:36:54.636Z,90.42
2023-05-22T02:37:54.633Z,90.42
2023-05-22T02:38:54.621Z,89.70
2023-05-22T02:39:54.644Z,90.67
2023-05-22T02:40:54.605Z,91.69
2023-05-22T02:41:54.603Z,91.49
2023-05-22T02:42:54.594Z,90.87
2023-05-22T02:43:54.578Z,91.69
2023-05-22T02:44:54.563Z,91.08
2023-05-22T02:45:54.597Z,91.38
2023-05-22T02:46:54.660Z,90.71
2023-05-22T02:47:54.578Z,90.40
2023-05-22T02:48:54.511Z,90.91
2023-05-22T02:49:54.508Z,89.78
2023-05-22T02:50:54.504Z,90.30
2023-05-22T02:51:54.514Z,89.69
2023-05-22T02:52:54.482Z,89.07
2023-05-22T02:53:54.477Z,89.37
2023-05-22T02:54:54.455Z,89.69
2023-05-22T02:55:54.434Z,89.17
2023-05-22T02:56:54.451Z,89.37
2023-05-22T02:57:54.466Z,89.78
2023-05-22T02:58:54.424Z,89.69
2023-05-22T02:59:54.412Z,89.69
2023-05-22T03:00:54.397Z,89.48
2023-05-22T03:01:54.508Z,89.89
2023-05-22T03:02:54.394Z,89.48
2023-05-22T03:03:54.471Z,88.76
2023-05-22T03:04:54.349Z,88.76
2023-05-22T03:05:54.333Z,89.37
2023-05-22T03:06:54.320Z,89.69
2023-05-22T03:07:54.322Z,89.37
2023-05-22T03:08:54.306Z,89.69
2023-05-22T03:09:54.312Z,89.78
2023-05-22T03:10:54.279Z,89.27
2023-05-22T03:11:54.273Z,89.07
2023-05-22T03:12:54.259Z,88.96
2023-05-22T03:13:54.252Z,89.07
2023-05-22T03:14:54.258Z,88.56
2023-05-22T03:15:54.267Z,88.56
2023-05-22T03:16:54.252Z,89.17
2023-05-22T03:17:54.301Z,88.96
2023-05-22T03:18:54.229Z,90.20
2023-05-22T03:19:54.225Z,89.07
2023-05-22T03:20:54.175Z,89.69
2023-05-22T03:21:54.206Z,89.27
2023-05-22T03:22:54.159Z,88.35
2023-05-22T03:23:54.157Z,89.37
2023-05-22T03:24:54.127Z,89.33
2023-05-22T03:25:54.131Z,89.54
2023-05-22T03:26:54.135Z,90.56
2023-05-22T03:27:54.150Z,90.56
2023-05-22T03:28:54.176Z,90.05
2023-05-22T03:29:54.088Z,89.03
2023-05-22T03:30:54.080Z,90.26
2023-05-22T03:31:54.061Z,90.97
2023-05-22T03:32:54.098Z,90.67
2023-05-22T03:33:54.193Z,90.56
2023-05-22T03:34:54.049Z,91.14
2023-05-22T03:35:54.030Z,90.93
2023-05-22T03:36:54.018Z,90.93
2023-05-22T03:37:54.011Z,91.03
2023-05-22T03:38:53.993Z,90.32
2023-05-22T03:39:54.002Z,90.62
2023-05-22T03:40:53.970Z,89.76
2023-05-22T03:41:53.965Z,88.64
2023-05-22T03:42:53.958Z,89.76
2023-05-22T03:43:53.949Z,90.37
2023-05-22T03:44:53.924Z,90.07
2023-05-22T03:45:54.050Z,88.80
2023-05-22T03:46:53.905Z,89.72
2023-05-22T03:47:53.923Z,88.90
2023-05-22T03:48:53.887Z,89.92
2023-05-22T03:49:53.883Z,90.75
2023-05-22T03:50:53.870Z,89.92
2023-05-22T03:51:53.920Z,90.75
2023-05-22T03:52:53.856Z,90.34
2023-05-22T03:53:53.832Z,89.83
2023-05-22T03:54:53.856Z,89.11
2023-05-22T03:55:53.818Z,88.70
2023-05-22T03:56:53.806Z,88.59
2023-05-22T03:57:53.824Z,88.80
2023-05-22T03:58:53.790Z,88.56
2023-05-22T03:59:53.785Z,87.63
2023-05-22T04:00:53.767Z,87.73
2023-05-22T04:01:53.747Z,87.53
2023-05-22T04:02:53.793Z,87.22
2023-05-22T04:03:53.749Z,88.86
2023-05-22T04:04:53.741Z,88.56
2023-05-22T04:05:53.700Z,88.45
2023-05-22T04:06:53.699Z,88.04
2023-05-22T04:07:53.686Z,87.63
2023-05-22T04:08:53.675Z,88.82
2023-05-22T04:09:53.690Z,87.08
2023-05-22T04:10:53.645Z,87.49
2023-05-22T04:11:53.661Z,88.62
2023-05-22T04:12:53.630Z,88.31
2023-05-22T04:13:53.628Z,88.26
2023-05-22T04:14:53.631Z,88.06
2023-05-22T04:15:53.698Z,89.18
2023-05-22T04:16:53.626Z,89.09
2023-05-22T04:17:53.691Z,89.70
2023-05-22T04:18:53.595Z,89.09
2023-05-22T04:19:53.574Z,88.98
2023-05-22T04:20:53.565Z,88.47
2023-05-22T04:21:53.566Z,87.76
2023-05-22T04:22:53.532Z,88.98
2023-05-22T04:23:53.524Z,88.64
2023-05-22T04:24:53.512Z,88.98
2023-05-22T04:25:53.513Z,89.18
2023-05-22T04:26:53.493Z,89.18
2023-05-22T04:27:53.506Z,88.57
2023-05-22T04:28:53.475Z,87.76
2023-05-22T04:29:53.472Z,88.47
2023-05-22T04:30:53.492Z,88.37
2023-05-22T04:31:53.449Z,88.98
2023-05-22T04:32:53.463Z,88.68
2023-05-22T04:33:53.459Z,88.26
2023-05-22T04:34:53.404Z,87.04
2023-05-22T04:35:53.396Z,87.55
2023-05-22T04:36:53.391Z,89.09
2023-05-22T04:37:53.385Z,88.47
2023-05-22T04:38:53.364Z,87.55
2023-05-22T04:39:55.157Z,89.29
2023-05-22T04:40:53.346Z,88.12
2023-05-22T04:41:53.349Z,89.04
2023-05-22T04:42:53.316Z,88.64
2023-05-22T04:43:53.340Z,88.64
2023-05-22T04:44:53.314Z,86.90
2023-05-22T04:45:53.319Z,88.18
2023-05-22T04:46:53.301Z,87.67
2023-05-22T04:47:53.319Z,87.32
2023-05-22T04:48:53.260Z,85.96
2023-05-22T04:49:53.262Z,85.75
2023-05-22T04:50:53.244Z,85.41
2023-05-22T04:51:53.254Z,85.68
2023-05-22T04:52:53.221Z,86.02
2023-05-22T04:53:53.205Z,84.80
2023-05-22T04:54:53.180Z,85.41
2023-05-22T04:55:53.186Z,85.92
2023-05-22T04:56:53.175Z,86.73
2023-05-22T04:57:53.205Z,88.78
2023-05-22T04:58:53.144Z,87.08
2023-05-22T04:59:53.144Z,87.90
2023-05-22T05:00:53.135Z,88.10
2023-05-22T05:01:53.115Z,88.20
2023-05-22T05:02:53.138Z,87.18
2023-05-22T05:03:53.169Z,87.59
2023-05-22T05:04:53.098Z,86.88
2023-05-22T05:05:53.072Z,85.61
2023-05-22T05:06:53.062Z,85.57
2023-05-22T05:07:53.076Z,84.66
2023-05-22T05:08:53.050Z,85.37
2023-05-22T05:09:53.074Z,83.02
2023-05-22T05:10:53.031Z,86.22
2023-05-22T05:11:53.031Z,85.10
2023-05-22T05:12:53.002Z,83.78
2023-05-22T05:13:53.019Z,83.37
2023-05-22T05:14:52.972Z,83.16
2023-05-22T05:15:52.989Z,85.10
2023-05-22T05:16:53.093Z,83.47
2023-05-22T05:17:52.971Z,82.96
2023-05-22T05:18:52.966Z,80.91
2023-05-22T05:19:52.935Z,83.58
2023-05-22T05:20:52.922Z,82.79
2023-05-22T05:21:53.010Z,81.59
2023-05-22T05:22:52.900Z,80.24
2023-05-22T05:23:52.883Z,77.66
2023-05-22T05:24:52.878Z,79.02
2023-05-22T05:25:52.873Z,79.16
2023-05-22T05:26:52.858Z,78.30
2023-05-22T05:27:52.865Z,78.27
2023-05-22T05:28:52.834Z,76.20
2023-05-22T05:29:52.825Z,77.25
2023-05-22T05:30:52.825Z,76.85
2023-05-22T05:31:52.835Z,76.61
2023-05-22T05:32:52.833Z,78.17
2023-05-22T05:33:52.832Z,79.69
2023-05-22T05:34:52.769Z,80.24
2023-05-22T05:35:52.792Z,79.59
2023-05-22T05:36:52.745Z,79.82
2023-05-22T05:37:52.746Z,79.44
2023-05-22T05:38:52.737Z,78.93
2023-05-22T05:39:52.758Z,78.36
2023-05-22T05:40:52.706Z,78.56
2023-05-22T05:41:52.714Z,79.41
2023-05-22T05:42:52.698Z,79.61
2023-05-22T05:43:52.685Z,78.94
2023-05-22T05:44:52.678Z,78.74
2023-05-22T05:45:52.707Z,78.13
2023-05-22T05:46:52.665Z,78.23
2023-05-22T05:47:52.680Z,81.18
2023-05-22T05:48:52.671Z,79.14
2023-05-22T05:49:52.630Z,80.93
2023-05-22T05:50:52.607Z,80.08
2023-05-22T05:51:52.759Z,79.03
2023-05-22T05:52:52.582Z,77.44
2023-05-22T05:53:52.583Z,77.20
2023-05-22T05:54:52.563Z,77.61
2023-05-22T05:55:52.552Z,73.93
2023-05-22T05:56:52.545Z,72.58
2023-05-22T05:57:52.586Z,73.39
2023-05-22T05:58:52.514Z,73.86
2023-05-22T05:59:52.503Z,72.11
2023-05-22T06:00:52.495Z,71.17
2023-05-22T06:01:52.504Z,71.17
2023-05-22T06:02:52.685Z,69.35
2023-05-22T06:03:52.651Z,69.62
2023-05-22T06:04:52.458Z,72.11
2023-05-22T06:05:52.562Z,72.41
2023-05-22T06:06:52.438Z,69.58
2023-05-22T06:07:52.418Z,70.69
2023-05-22T06:08:52.412Z,72.27
2023-05-22T06:09:52.448Z,72.95
2023-05-22T06:10:52.392Z,72.51
2023-05-22T06:11:52.377Z,70.59
2023-05-22T06:12:52.368Z,71.91
2023-05-22T06:13:52.352Z,69.25
2023-05-22T06:14:52.381Z,67.07
2023-05-22T06:15:52.418Z,68.91
2023-05-22T06:16:52.357Z,69.24
2023-05-22T06:17:52.349Z,69.89
2023-05-22T06:18:52.391Z,71.80
2023-05-22T06:19:52.292Z,70.19
2023-05-22T06:20:52.297Z,70.49
2023-05-22T06:21:53.075Z,71.60
2023-05-22T06:22:52.277Z,71.30
2023-05-22T06:23:52.258Z,72.38
2023-05-22T06:24:52.244Z,71.26
2023-05-22T06:25:52.235Z,73.75
2023-05-22T06:26:52.229Z,71.30
2023-05-22T06:27:52.237Z,70.79
2023-05-22T06:28:52.226Z,70.06
2023-05-22T06:29:52.196Z,68.14
2023-05-22T06:30:52.184Z,69.82
2023-05-22T06:31:52.181Z,70.02
2023-05-22T06:32:52.225Z,68.98
2023-05-22T06:33:52.375Z,70.39
2023-05-22T06:34:52.160Z,72.07
2023-05-22T06:35:52.139Z,70.39
2023-05-22T06:36:52.137Z,68.85
2023-05-22T06:37:52.106Z,67.82
2023-05-22T06:38:52.107Z,66.78
2023-05-22T06:39:52.119Z,62.23
2023-05-22T06:40:52.084Z,64.51
2023-05-22T06:41:52.082Z,65.88
2023-05-22T06:42:52.055Z,66.95
2023-05-22T06:43:52.043Z,64.95
2023-05-22T06:44:52.032Z,58.30
2023-05-22T06:45:52.098Z,57.20
2023-05-22T06:46:52.014Z,60.71
2023-05-22T06:47:52.039Z,56.67
2023-05-22T06:48:51.985Z,59.78
2023-05-22T06:49:51.973Z,59.85
2023-05-22T06:50:51.971Z,59.92
2023-05-22T06:51:51.984Z,59.52
2023-05-22T06:52:51.959Z,58.69
2023-05-22T06:53:51.937Z,59.59
2023-05-22T06:54:51.927Z,58.67
2023-05-22T06:55:51.919Z,59.14
2023-05-22T06:56:51.904Z,59.53
2023-05-22T06:57:51.926Z,58.71
2023-05-22T06:58:51.915Z,55.14
2023-05-22T06:59:51.874Z,55.49
2023-05-22T07:00:51.893Z,58.80
2023-05-22T07:01:51.851Z,57.59
2023-05-22T07:02:51.879Z,60.72
2023-05-22T07:03:51.870Z,61.02
2023-05-22T07:04:51.822Z,60.99
2023-05-22T07:05:51.873Z,61.66
2023-05-22T07:06:51.809Z,60.82
2023-05-22T07:07:51.795Z,60.92
2023-05-22T07:08:51.780Z,55.72
2023-05-22T07:09:52.018Z,60.12
2023-05-22T07:10:51.772Z,61.02
2023-05-22T07:11:51.750Z,60.82
2023-05-22T07:12:51.734Z,59.79
2023-05-22T07:13:51.722Z,55.79
2023-05-22T07:14:51.723Z,59.42
2023-05-22T07:15:51.749Z,59.42
2023-05-22T07:16:51.786Z,59.59
2023-05-22T07:17:51.709Z,59.17
2023-05-22T07:18:51.678Z,59.23
2023-05-22T07:19:51.663Z,59.14
2023-05-22T07:20:51.659Z,58.91
2023-05-22T07:21:51.672Z,59.68
2023-05-22T07:22:51.636Z,59.18
2023-05-22T07:23:51.626Z,57.58
2023-05-22T07:24:51.607Z,56.18
2023-05-22T07:25:51.611Z,57.58
2023-05-22T07:26:51.583Z,57.26
2023-05-22T07:27:51.603Z,55.86
2023-05-22T07:28:51.587Z,57.95
2023-05-22T07:29:51.570Z,57.95
2023-05-22T07:30:51.568Z,57.35
2023-05-22T07:31:51.578Z,57.06
2023-05-22T07:32:51.589Z,56.43
2023-05-22T07:33:51.571Z,57.23
2023-05-22T07:34:51.530Z,57.95
2023-05-22T07:35:51.506Z,56.53
2023-05-22T07:36:51.491Z,53.64
2023-05-22T07:37:51.467Z,51.65
2023-05-22T07:38:51.477Z,51.45
2023-05-22T07:39:51.470Z,53.96
2023-05-22T07:40:51.452Z,55.16
2023-05-22T07:41:51.637Z,55.24
2023-05-22T07:42:51.416Z,53.27
2023-05-22T07:43:51.412Z,55.11
2023-05-22T07:44:51.404Z,55.24
2023-05-22T07:45:51.604Z,54.64
2023-05-22T07:46:51.385Z,55.14
2023-05-22T07:47:53.328Z,55.87
2023-05-22T07:48:51.394Z,54.94
2023-05-22T07:49:51.348Z,56.11
2023-05-22T07:50:51.348Z,53.29
2023-05-22T07:51:51.340Z,55.83
2023-05-22T07:52:51.324Z,54.11
2023-05-22T07:53:51.293Z,52.29
2023-05-22T07:54:51.305Z,52.59
2023-05-22T07:55:51.284Z,49.63
2023-05-22T07:56:51.268Z,53.31
2023-05-22T07:57:51.283Z,50.50
2023-05-22T07:58:51.256Z,53.59
2023-05-22T07:59:51.275Z,55.35
2023-05-22T08:00:51.229Z,53.94
2023-05-22T08:01:51.224Z,50.63
2023-05-22T08:02:51.347Z,53.71
2023-05-22T08:03:51.473Z,53.39
2023-05-22T08:04:51.261Z,53.16
2023-05-22T08:05:51.187Z,51.47
2023-05-22T08:06:51.164Z,50.88
2023-05-22T08:07:51.145Z,49.61
2023-05-22T08:08:51.147Z,51.40
2023-05-22T08:09:51.254Z,52.96
2023-05-22T08:11:03.143Z,52.54
2023-05-22T08:11:52.110Z,51.62
2023-05-22T08:12:51.105Z,48.65
2023-05-22T08:13:51.082Z,51.23
2023-05-22T08:14:51.085Z,51.20
2023-05-22T08:15:51.194Z,51.20
2023-05-22T08:16:52.118Z,52.09
2023-05-22T08:17:51.051Z,51.28
2023-05-22T08:18:51.080Z,50.01
2023-05-22T08:19:51.125Z,51.57
2023-05-22T08:20:51.828Z,51.47
2023-05-22T08:21:51.030Z,48.10
2023-05-22T08:22:51.918Z,50.21
2023-05-22T08:23:50.984Z,50.70
2023-05-22T08:24:50.976Z,51.07
2023-05-22T08:25:50.975Z,51.20
2023-05-22T08:26:50.959Z,50.90
2023-05-22T08:27:50.958Z,49.71
2023-05-22T08:28:50.958Z,50.51
2023-05-22T08:29:50.913Z,51.18
2023-05-22T08:30:50.908Z,50.46
2023-05-22T08:31:50.958Z,48.75
2023-05-22T08:32:50.919Z,49.64
2023-05-22T08:33:51.099Z,48.75
2023-05-22T08:34:50.867Z,45.40
2023-05-22T08:35:50.852Z,47.09
2023-05-22T08:36:50.855Z,45.94
2023-05-22T08:37:50.838Z,49.32
2023-05-22T08:38:50.833Z,46.66
2023-05-22T08:39:50.835Z,49.56
2023-05-22T08:40:50.829Z,52.14
2023-05-22T08:41:50.795Z,52.54
2023-05-22T08:42:50.789Z,52.42
2023-05-22T08:43:50.767Z,52.09
2023-05-22T08:44:50.766Z,52.17
2023-05-22T08:45:50.781Z,51.25
2023-05-22T08:46:50.792Z,50.23
2023-05-22T08:47:50.803Z,49.42
2023-05-22T08:48:50.717Z,49.81
2023-05-22T08:49:50.722Z,50.31
2023-05-22T08:50:50.701Z,48.82
2023-05-22T08:51:50.707Z,48.67
2023-05-22T08:52:50.682Z,49.69
2023-05-22T08:53:50.666Z,50.40
2023-05-22T08:54:50.658Z,51.62
2023-05-22T08:55:50.646Z,51.77
2023-05-22T08:56:56.686Z,51.50
2023-05-22T08:57:51.660Z,49.80
2023-05-22T08:58:50.619Z,51.32
2023-05-22T08:59:50.624Z,50.33
2023-05-22T09:00:50.666Z,49.95
2023-05-22T09:01:50.586Z,50.38
2023-05-22T09:02:50.649Z,51.72
2023-05-22T09:03:50.636Z,52.72
2023-05-22T09:04:50.593Z,52.84
2023-05-22T09:05:50.538Z,53.41
2023-05-22T09:06:50.558Z,53.44
2023-05-22T09:07:50.521Z,50.35
2023-05-22T09:08:51.639Z,53.19
2023-05-22T09:09:50.566Z,53.39
2023-05-22T09:10:50.502Z,54.32
2023-05-22T09:11:50.543Z,55.39
2023-05-22T09:12:50.492Z,53.39
2023-05-22T09:13:50.459Z,55.21
2023-05-22T09:14:50.455Z,54.69
2023-05-22T09:15:50.469Z,57.18
2023-05-22T09:16:50.465Z,57.63
2023-05-22T09:17:50.460Z,54.71
2023-05-22T09:18:50.461Z,55.58
2023-05-22T09:19:50.400Z,55.13
2023-05-22T09:20:50.409Z,55.80
2023-05-22T09:21:50.398Z,53.39
2023-05-22T09:22:50.375Z,53.44
2023-05-22T09:23:50.361Z,53.83
2023-05-22T09:24:50.363Z,53.11
2023-05-22T09:25:50.332Z,51.10
2023-05-22T09:26:50.348Z,49.66
2023-05-22T09:27:50.426Z,49.94
2023-05-22T09:28:50.310Z,49.52
2023-05-22T09:29:50.285Z,47.88
2023-05-22T09:30:50.322Z,49.64
2023-05-22T09:31:50.506Z,49.62
2023-05-22T09:32:50.314Z,48.85
2023-05-22T09:33:50.278Z,48.13
2023-05-22T09:34:50.243Z,49.00
2023-05-22T09:35:50.232Z,49.47
2023-05-22T09:36:50.289Z,47.66
2023-05-22T09:37:50.206Z,46.67
2023-05-22T09:38:50.197Z,47.34
2023-05-22T09:39:50.217Z,47.25
2023-05-22T09:40:50.184Z,46.14
2023-05-22T09:41:50.170Z,45.64
2023-05-22T09:42:50.161Z,44.56
2023-05-22T09:43:50.180Z,45.62
2023-05-22T09:44:50.278Z,46.09
2023-05-22T09:45:50.228Z,45.89
2023-05-22T09:46:50.158Z,46.66
2023-05-22T09:47:50.129Z,46.44
2023-05-22T09:48:50.099Z,46.96
2023-05-22T09:49:50.083Z,46.09
2023-05-22T09:50:50.082Z,46.17
2023-05-22T09:51:50.078Z,46.66
2023-05-22T09:52:50.056Z,45.97
2023-05-22T09:53:50.039Z,45.38
2023-05-22T09:54:50.075Z,45.10
2023-05-22T09:55:50.026Z,49.45
2023-05-22T09:56:50.110Z,48.27
2023-05-22T09:57:50.051Z,46.61
2023-05-22T09:58:49.999Z,45.72
2023-05-22T09:59:49.990Z,44.81
2023-05-22T10:00:49.976Z,43.90
2023-05-22T10:01:50.004Z,44.51
2023-05-22T10:02:49.988Z,44.93
2023-05-22T10:03:50.014Z,45.72
2023-05-22T10:04:49.975Z,46.69
2023-05-22T10:05:49.919Z,46.69
2023-05-22T10:06:49.912Z,46.69
2023-05-22T10:07:49.906Z,46.41
2023-05-22T10:08:49.898Z,45.86
2023-05-22T10:09:49.913Z,46.14
2023-05-22T10:10:49.909Z,45.72
2023-05-22T10:11:49.884Z,45.40
2023-05-22T10:12:49.846Z,45.08
2023-05-22T10:13:49.841Z,44.98
2023-05-22T10:14:49.838Z,45.50
2023-05-22T10:15:50.014Z,46.14
2023-05-22T10:16:49.838Z,47.52
2023-05-22T10:17:49.925Z,45.74
2023-05-22T10:18:49.852Z,46.01
2023-05-22T10:19:49.824Z,46.51
2023-05-22T10:20:49.775Z,46.11
2023-05-22T10:21:49.820Z,46.09
2023-05-22T10:22:49.750Z,46.66
2023-05-22T10:23:49.747Z,45.97
2023-05-22T10:24:49.747Z,46.26
2023-05-22T10:25:49.739Z,46.59
2023-05-22T10:26:49.706Z,42.76
2023-05-22T10:27:49.742Z,45.37
2023-05-22T10:28:49.686Z,45.96
2023-05-22T10:29:49.682Z,43.06
2023-05-22T10:30:49.681Z,44.31
2023-05-22T10:31:49.662Z,47.05
2023-05-22T10:32:49.695Z,49.98
2023-05-22T10:33:49.690Z,50.28
2023-05-22T10:34:49.632Z,50.78
2023-05-22T10:35:49.626Z,50.48
2023-05-22T10:36:49.603Z,51.15
2023-05-22T10:37:49.601Z,50.13
2023-05-22T10:38:49.592Z,51.23
2023-05-22T10:39:49.597Z,50.63
2023-05-22T10:40:49.563Z,51.25
2023-05-22T10:41:49.556Z,51.32
2023-05-22T10:42:49.545Z,51.89
2023-05-22T10:43:49.537Z,52.69
2023-05-22T10:44:49.540Z,51.37
2023-05-22T10:45:49.568Z,50.13
2023-05-22T10:46:49.509Z,49.79
2023-05-22T10:47:49.503Z,48.26
2023-05-22T10:48:49.492Z,45.37
2023-05-22T10:49:49.478Z,47.54
2023-05-22T10:50:49.455Z,45.96
2023-05-22T10:51:49.472Z,45.23
2023-05-22T10:52:49.439Z,47.69
2023-05-22T10:53:49.427Z,50.43
2023-05-22T10:54:49.419Z,48.31
2023-05-22T10:55:49.411Z,48.56
2023-05-22T10:56:49.403Z,45.38
2023-05-22T10:57:49.415Z,46.66
2023-05-22T10:58:49.386Z,46.47
2023-05-22T10:59:49.367Z,45.89
2023-05-22T11:00:49.354Z,43.10
2023-05-22T11:01:49.417Z,47.99
2023-05-22T11:02:49.423Z,49.44
2023-05-22T11:03:49.398Z,48.73
2023-05-22T11:04:49.379Z,47.79
2023-05-22T11:05:49.342Z,47.38
2023-05-22T11:06:49.295Z,46.54
2023-05-22T11:07:49.290Z,46.32
2023-05-22T11:08:49.380Z,44.07
2023-05-22T11:09:49.518Z,45.20
2023-05-22T11:10:49.260Z,46.61
2023-05-22T11:11:49.253Z,46.41
2023-05-22T11:12:49.237Z,44.97
2023-05-22T11:13:49.248Z,47.78
2023-05-22T11:14:49.218Z,48.06
2023-05-22T11:15:49.235Z,47.32
2023-05-22T11:16:49.257Z,46.11
2023-05-22T11:17:49.224Z,46.73
2023-05-22T11:18:49.189Z,46.33
2023-05-22T11:19:49.219Z,46.55
2023-05-22T11:20:49.165Z,47.44
2023-05-22T11:21:49.228Z,47.13
2023-05-22T11:22:49.147Z,47.28
2023-05-22T11:23:49.127Z,47.43
2023-05-22T11:24:49.120Z,47.16
2023-05-22T11:25:49.124Z,46.84
2023-05-22T11:26:49.102Z,46.72
2023-05-22T11:27:49.136Z,44.49
2023-05-22T11:28:49.090Z,45.78
2023-05-22T11:29:49.063Z,45.65
2023-05-22T11:30:49.099Z,45.75
2023-05-22T11:31:49.044Z,44.81
2023-05-22T11:32:49.041Z,45.94
2023-05-22T11:33:49.071Z,46.45
2023-05-22T11:34:49.022Z,46.61
2023-05-22T11:35:49.021Z,44.97
2023-05-22T11:36:48.988Z,47.47
2023-05-22T11:37:49.005Z,45.54
2023-05-22T11:38:48.986Z,47.20
2023-05-22T11:39:49.013Z,46.00
2023-05-22T11:40:48.965Z,45.38
2023-05-22T11:41:48.949Z,46.47
2023-05-22T11:42:48.932Z,45.16
2023-05-22T11:43:48.932Z,46.03
2023-05-22T11:44:48.918Z,43.76
2023-05-22T11:45:48.936Z,43.27
2023-05-22T11:46:48.947Z,43.93
2023-05-22T11:47:49.050Z,43.34
2023-05-22T11:48:48.887Z,42.95
2023-05-22T11:49:48.865Z,42.30
2023-05-22T11:50:49.022Z,44.02
2023-05-22T11:51:48.877Z,45.05
2023-05-22T11:52:48.852Z,45.45
2023-05-22T11:53:48.825Z,45.03
2023-05-22T11:54:48.807Z,45.27
2023-05-22T11:55:48.796Z,46.67
2023-05-22T11:56:48.783Z,47.49
2023-05-22T11:57:48.804Z,47.52
2023-05-22T11:58:48.767Z,47.81
2023-05-22T11:59:48.764Z,47.44
2023-05-22T12:00:48.801Z,47.12
2023-05-22T12:01:48.736Z,47.19
2023-05-22T12:02:48.843Z,46.95
2023-05-22T12:03:48.829Z,47.22
2023-05-22T12:04:48.696Z,46.85
2023-05-22T12:05:48.688Z,46.67
2023-05-22T12:06:48.769Z,47.00
2023-05-22T12:07:48.716Z,45.51
2023-05-22T12:08:48.661Z,46.08
2023-05-22T12:09:48.892Z,46.33
2023-05-22T12:10:48.641Z,46.51
2023-05-22T12:11:48.623Z,46.41
2023-05-22T12:12:48.626Z,46.00
2023-05-22T12:13:48.605Z,44.79
2023-05-22T12:14:48.607Z,44.18
2023-05-22T12:15:48.638Z,43.56
2023-05-22T12:16:48.627Z,43.93
2023-05-22T12:17:48.791Z,42.63
2023-05-22T12:18:48.573Z,42.46
2023-05-22T12:19:48.549Z,42.63
2023-05-22T12:20:48.549Z,41.85
2023-05-22T12:21:48.625Z,41.35
2023-05-22T12:22:48.510Z,42.46
2023-05-22T12:23:48.514Z,42.77
2023-05-22T12:24:48.485Z,42.77
2023-05-22T12:25:48.484Z,42.47
2023-05-22T12:26:48.490Z,41.67
2023-05-22T12:27:48.512Z,42.36
2023-05-22T12:28:48.462Z,42.73
2023-05-22T12:29:48.445Z,42.24
2023-05-22T12:30:48.439Z,42.14
2023-05-22T12:31:48.506Z,41.65
2023-05-22T12:32:48.457Z,42.46
2023-05-22T12:33:48.436Z,42.16
2023-05-22T12:34:48.402Z,42.76
2023-05-22T12:35:48.384Z,42.55
2023-05-22T12:36:48.391Z,42.36
2023-05-22T12:37:48.360Z,42.47
2023-05-22T12:38:48.364Z,43.46
2023-05-22T12:39:48.384Z,44.25
2023-05-22T12:40:48.337Z,43.17
2023-05-22T12:41:48.330Z,43.15
2023-05-22T12:42:48.313Z,42.47
2023-05-22T12:43:48.309Z,41.59
2023-05-22T12:44:48.301Z,42.28
2023-05-22T12:45:48.324Z,42.07
2023-05-22T12:46:48.285Z,41.96
2023-05-22T12:47:48.330Z,42.46
2023-05-22T12:48:48.242Z,41.06
2023-05-22T12:49:48.242Z,41.67
2023-05-22T12:50:48.240Z,41.57
2023-05-22T12:51:48.243Z,40.88
2023-05-22T12:52:48.222Z,41.47